createdAt,value
2023-02-14T00:01:20.721Z,102775.94
2023-02-14T00:03:49.569Z,102774.28
2023-02-14T00:06:17.280Z,102776.13
2023-02-14T00:08:45.013Z,102777.44
2023-02-14T00:11:13.962Z,102772.59
2023-02-14T00:14:01.670Z,102777.78
2023-02-14T00:16:29.272Z,102771.44
2023-02-14T00:19:05.947Z,102778.97
2023-02-14T00:21:36.177Z,102779.03
2023-02-14T00:24:09.179Z,102775.81
2023-02-14T00:26:38.829Z,102771.25
2023-02-14T00:29:08.496Z,102770.09
2023-02-14T00:31:37.489Z,102765.00
2023-02-14T00:34:06.398Z,102762.84
2023-02-14T00:36:34.143Z,102762.69
2023-02-14T00:39:08.327Z,102771.09
2023-02-14T00:41:38.350Z,102764.75
2023-02-14T00:44:06.661Z,102755.25
2023-02-14T00:46:35.024Z,102760.16
2023-02-14T00:49:02.716Z,102763.75
2023-02-14T00:51:31.057Z,102760.56
2023-02-14T00:53:58.594Z,102764.22
2023-02-14T00:56:26.303Z,102765.31
2023-02-14T00:58:53.668Z,102754.22
2023-02-14T01:01:21.131Z,102752.97
2023-02-14T01:03:48.726Z,102757.78
2023-02-14T01:06:16.471Z,102757.06
2023-02-14T01:08:44.034Z,102752.28
2023-02-14T01:11:14.220Z,102751.00
2023-02-14T01:13:42.817Z,102743.13
2023-02-14T01:16:16.450Z,102736.78
2023-02-14T01:18:44.684Z,102745.91
2023-02-14T01:21:24.299Z,102741.03
2023-02-14T01:23:55.405Z,102741.13
2023-02-14T01:26:24.312Z,102741.75
2023-02-14T01:28:52.165Z,102740.88
2023-02-14T01:31:22.651Z,102745.25
2023-02-14T01:33:50.666Z,102738.72
2023-02-14T01:36:30.313Z,102737.81
2023-02-14T01:39:02.360Z,102746.94
2023-02-14T01:41:32.344Z,102759.91
2023-02-14T01:44:01.556Z,102759.19
2023-02-14T01:46:32.700Z,102752.47
2023-02-14T01:49:09.565Z,102753.28
2023-02-14T01:51:41.456Z,102752.25
2023-02-14T01:54:10.085Z,102748.78
2023-02-14T01:56:43.754Z,102754.91
2023-02-14T01:59:19.801Z,102756.25
2023-02-14T02:01:50.140Z,102746.56
2023-02-14T02:04:32.788Z,102748.00
2023-02-14T02:07:05.921Z,102748.31
2023-02-14T02:09:42.390Z,102749.72
2023-02-14T02:12:10.140Z,102751.16
2023-02-14T02:14:37.705Z,102748.09
2023-02-14T02:17:11.207Z,102751.38
2023-02-14T02:20:16.213Z,102752.41
2023-02-14T02:23:17.367Z,102744.41
2023-02-14T02:25:47.693Z,102744.13
2023-02-14T02:28:40.856Z,102749.00
2023-02-14T02:31:32.623Z,102742.25
2023-02-14T02:34:18.336Z,102738.66
2023-02-14T02:37:02.727Z,102736.59
2023-02-14T02:39:58.917Z,102734.38
2023-02-14T02:42:42.171Z,102723.66
2023-02-14T02:45:33.990Z,102724.84
2023-02-14T02:48:10.610Z,102734.34
2023-02-14T02:51:05.264Z,102719.69
2023-02-14T02:53:35.098Z,102715.50
2023-02-14T02:56:28.506Z,102722.16
2023-02-14T02:59:20.659Z,102717.31
2023-02-14T03:02:11.833Z,102712.47
2023-02-14T03:04:53.232Z,102712.03
2023-02-14T03:07:37.068Z,102702.75
2023-02-14T03:10:16.962Z,102711.16
2023-02-14T03:12:54.627Z,102713.44
2023-02-14T03:15:27.950Z,102707.00
2023-02-14T03:18:16.877Z,102708.28
2023-02-14T03:20:54.890Z,102716.13
2023-02-14T03:23:29.046Z,102708.09
2023-02-14T03:26:15.187Z,102710.66
2023-02-14T03:29:04.572Z,102702.09
2023-02-14T03:31:54.572Z,102706.09
2023-02-14T03:34:45.918Z,102700.28
2023-02-14T03:37:52.545Z,102692.78
2023-02-14T03:40:27.405Z,102685.72
2023-02-14T03:43:00.803Z,102697.81
2023-02-14T03:45:34.819Z,102692.75
2023-02-14T03:48:08.753Z,102682.94
2023-02-14T03:50:40.493Z,102683.94
2023-02-14T03:53:10.345Z,102686.63
2023-02-14T03:55:49.300Z,102674.72
2023-02-14T03:58:26.645Z,102679.19
2023-02-14T04:01:01.126Z,102682.84
2023-02-14T04:03:31.813Z,102680.88
2023-02-14T04:06:00.562Z,102672.59
2023-02-14T04:08:29.627Z,102668.72
2023-02-14T04:11:00.805Z,102669.94
2023-02-14T04:13:28.853Z,102665.25
2023-02-14T04:15:56.299Z,102671.00
2023-02-14T04:18:42.373Z,102670.13
2023-02-14T04:21:11.135Z,102669.53
2023-02-14T04:23:38.685Z,102669.56
2023-02-14T04:26:06.619Z,102666.25
2023-02-14T04:28:34.491Z,102676.75
2023-02-14T04:31:04.156Z,102667.38
2023-02-14T04:33:32.299Z,102666.31
2023-02-14T04:36:01.147Z,102674.63
2023-02-14T04:38:28.822Z,102672.84
2023-02-14T04:40:56.491Z,102670.88
2023-02-14T04:43:24.083Z,102666.16
2023-02-14T04:45:51.498Z,102673.16
2023-02-14T04:48:19.028Z,102670.44
2023-02-14T04:50:52.641Z,102672.84
2023-02-14T04:53:20.649Z,102667.28
2023-02-14T04:55:50.011Z,102665.00
2023-02-14T04:58:18.446Z,102668.00
2023-02-14T05:00:45.935Z,102661.50
2023-02-14T05:03:13.515Z,102656.53
2023-02-14T05:05:40.776Z,102667.69
2023-02-14T05:08:08.013Z,102665.50
2023-02-14T05:10:35.279Z,102672.03
2023-02-14T05:13:02.508Z,102662.81
2023-02-14T05:15:29.655Z,102659.53
2023-02-14T05:18:01.660Z,102658.22
2023-02-14T05:20:29.788Z,102655.56
2023-02-14T05:22:59.945Z,102657.47
2023-02-14T05:25:27.587Z,102662.44
2023-02-14T05:27:54.863Z,102665.81
2023-02-14T05:30:26.671Z,102667.09
2023-02-14T05:32:54.789Z,102665.22
2023-02-14T05:35:22.352Z,102664.50
2023-02-14T05:37:50.535Z,102665.63
2023-02-14T05:40:18.068Z,102662.94
2023-02-14T05:42:45.793Z,102660.03
2023-02-14T05:45:13.353Z,102663.94
2023-02-14T05:47:41.157Z,102651.19
2023-02-14T05:50:09.151Z,102653.41
2023-02-14T05:52:37.406Z,102646.63
2023-02-14T05:55:05.111Z,102647.84
2023-02-14T05:57:32.737Z,102653.31
2023-02-14T06:00:00.178Z,102653.09
2023-02-14T06:02:27.711Z,102650.91
2023-02-14T06:04:55.138Z,102651.91
2023-02-14T06:07:22.750Z,102660.25
2023-02-14T06:09:49.995Z,102656.59
2023-02-14T06:12:17.305Z,102672.38
2023-02-14T06:14:45.225Z,102666.91
2023-02-14T06:17:12.694Z,102662.34
2023-02-14T06:19:39.961Z,102660.72
2023-02-14T06:22:07.107Z,102660.91
2023-02-14T06:24:34.385Z,102653.38
2023-02-14T06:27:01.843Z,102654.94
2023-02-14T06:29:29.458Z,102651.28
2023-02-14T06:31:57.135Z,102657.56
2023-02-14T06:34:24.600Z,102660.91
2023-02-14T06:36:51.966Z,102656.69
2023-02-14T06:39:19.217Z,102658.09
2023-02-14T06:41:46.689Z,102653.47
2023-02-14T06:44:14.127Z,102649.75
2023-02-14T06:46:41.458Z,102650.78
2023-02-14T06:49:10.340Z,102650.91
2023-02-14T06:51:37.790Z,102637.88
2023-02-14T06:54:05.209Z,102637.78
2023-02-14T06:56:32.523Z,102641.78
2023-02-14T06:58:59.833Z,102647.22
2023-02-14T07:01:27.274Z,102651.59
2023-02-14T07:03:54.649Z,102647.09
2023-02-14T07:06:22.263Z,102640.84
2023-02-14T07:08:49.560Z,102644.13
2023-02-14T07:11:16.986Z,102643.63
2023-02-14T07:13:44.438Z,102647.19
2023-02-14T07:16:12.064Z,102652.88
2023-02-14T07:18:39.542Z,102647.94
2023-02-14T07:21:07.406Z,102645.78
2023-02-14T07:23:35.513Z,102656.59
2023-02-14T07:26:03.751Z,102653.72
2023-02-14T07:28:31.249Z,102655.44
2023-02-14T07:31:01.391Z,102656.06
2023-02-14T07:33:29.127Z,102656.94
2023-02-14T07:35:56.877Z,102656.00
2023-02-14T07:38:24.891Z,102646.06
2023-02-14T07:40:54.350Z,102650.19
2023-02-14T07:43:21.774Z,102653.66
2023-02-14T07:45:49.290Z,102644.72
2023-02-14T07:48:16.905Z,102639.03
2023-02-14T07:50:44.550Z,102638.00
2023-02-14T07:53:12.113Z,102648.22
2023-02-14T07:55:40.736Z,102641.44
2023-02-14T07:58:08.269Z,102646.00
2023-02-14T08:00:35.827Z,102637.97
2023-02-14T08:03:03.329Z,102646.16
2023-02-14T08:05:30.596Z,102651.47
2023-02-14T08:07:57.779Z,102644.63
2023-02-14T08:10:25.183Z,102638.56
2023-02-14T08:13:01.617Z,102649.50
2023-02-14T08:15:53.180Z,102647.38
2023-02-14T08:18:23.267Z,102638.81
2023-02-14T08:20:50.926Z,102638.41
2023-02-14T08:23:19.742Z,102635.88
2023-02-14T08:25:49.522Z,102636.63
2023-02-14T08:28:22.492Z,102635.72
2023-02-14T08:30:51.210Z,102646.63
2023-02-14T08:33:19.475Z,102641.91
2023-02-14T08:35:47.247Z,102642.41
2023-02-14T08:38:14.836Z,102641.53
2023-02-14T08:40:42.636Z,102645.03
2023-02-14T08:43:10.278Z,102652.97
2023-02-14T08:45:38.299Z,102645.59
2023-02-14T08:48:09.077Z,102653.28
2023-02-14T08:50:37.590Z,102646.13
2023-02-14T08:53:13.477Z,102643.09
2023-02-14T08:55:41.353Z,102645.03
2023-02-14T08:58:09.129Z,102644.34
2023-02-14T09:00:36.827Z,102641.03
2023-02-14T09:03:04.532Z,102642.06
2023-02-14T09:05:32.934Z,102641.34
2023-02-14T09:08:02.915Z,102641.09
2023-02-14T09:10:30.498Z,102636.09
2023-02-14T09:12:57.878Z,102632.31
2023-02-14T09:15:25.260Z,102629.72
2023-02-14T09:17:52.534Z,102627.25
2023-02-14T09:20:20.055Z,102628.78
2023-02-14T09:22:48.810Z,102625.06
2023-02-14T09:25:17.517Z,102617.00
2023-02-14T09:27:44.946Z,102615.09
2023-02-14T09:30:13.486Z,102614.78
2023-02-14T09:32:41.039Z,102608.47
2023-02-14T09:35:20.637Z,102614.81
2023-02-14T09:37:48.098Z,102611.81
2023-02-14T09:40:16.977Z,102604.00
2023-02-14T09:43:01.840Z,102621.22
2023-02-14T09:45:32.374Z,102608.53
2023-02-14T09:48:34.460Z,102606.22
2023-02-14T09:51:15.116Z,102601.84
2023-02-14T09:53:51.363Z,102599.06
2023-02-14T09:56:42.759Z,102600.22
2023-02-14T09:59:20.033Z,102596.19
2023-02-14T10:01:57.546Z,102609.47
2023-02-14T10:04:40.876Z,102612.13
2023-02-14T10:07:17.592Z,102609.13
2023-02-14T10:10:02.986Z,102602.97
2023-02-14T10:12:36.847Z,102597.69
2023-02-14T10:15:19.148Z,102599.38
2023-02-14T10:17:52.339Z,102605.13
2023-02-14T10:20:29.277Z,102591.31
2023-02-14T10:23:24.811Z,102592.56
2023-02-14T10:26:25.068Z,102584.72
2023-02-14T10:28:54.367Z,102589.31
2023-02-14T10:31:25.671Z,102587.69
2023-02-14T10:33:57.855Z,102582.25
2023-02-14T10:37:07.156Z,102581.75
2023-02-14T10:39:46.169Z,102576.72
2023-02-14T10:42:25.507Z,102563.28
2023-02-14T10:44:58.874Z,102562.00
2023-02-14T10:47:53.899Z,102567.72
2023-02-14T10:50:50.249Z,102557.06
2023-02-14T10:53:26.842Z,102567.00
2023-02-14T10:56:02.691Z,102561.69
2023-02-14T10:58:36.274Z,102562.28
2023-02-14T11:01:12.304Z,102562.44
2023-02-14T11:03:49.294Z,102560.34
2023-02-14T11:06:16.876Z,102550.56
2023-02-14T11:08:44.269Z,102558.19
2023-02-14T11:11:20.694Z,102558.59
2023-02-14T11:13:48.608Z,102554.81
2023-02-14T11:16:31.191Z,102551.16
2023-02-14T11:19:24.837Z,102545.09
2023-02-14T11:21:55.054Z,102546.56
2023-02-14T11:24:31.816Z,102538.75
2023-02-14T11:27:04.048Z,102538.13
2023-02-14T11:29:57.553Z,102530.13
2023-02-14T11:32:28.629Z,102526.00
2023-02-14T11:35:17.376Z,102530.66
2023-02-14T11:37:51.106Z,102524.72
2023-02-14T11:40:39.640Z,102520.00
2023-02-14T11:43:16.027Z,102510.94
2023-02-14T11:45:46.333Z,102506.78
2023-02-14T11:48:37.848Z,102505.22
2023-02-14T11:51:14.609Z,102498.94
2023-02-14T11:53:56.036Z,102494.66
2023-02-14T11:56:24.527Z,102487.72
2023-02-14T11:59:03.914Z,102483.97
2023-02-14T12:01:35.081Z,102484.59
2023-02-14T12:04:07.741Z,102479.59
2023-02-14T12:06:36.701Z,102471.44
2023-02-14T12:09:24.059Z,102468.19
2023-02-14T12:12:16.920Z,102463.94
2023-02-14T12:14:45.230Z,102464.84
2023-02-14T12:17:18.973Z,102461.41
2023-02-14T12:20:01.087Z,102451.91
2023-02-14T12:22:35.283Z,102446.75
2023-02-14T12:25:19.254Z,102452.06
2023-02-14T12:27:54.686Z,102438.91
2023-02-14T12:30:24.919Z,102444.34
2023-02-14T12:32:56.488Z,102435.44
2023-02-14T12:35:48.626Z,102422.63
2023-02-14T12:38:39.629Z,102418.38
2023-02-14T12:41:41.885Z,102421.63
2023-02-14T12:44:34.099Z,102410.06
2023-02-14T12:47:13.100Z,102400.41
2023-02-14T12:49:40.545Z,102397.94
2023-02-14T12:52:41.791Z,102393.75
2023-02-14T12:55:34.918Z,102389.31
2023-02-14T12:58:41.102Z,102392.84
2023-02-14T13:01:39.061Z,102382.34
2023-02-14T13:04:44.575Z,102375.47
2023-02-14T13:07:12.201Z,102370.97
2023-02-14T13:09:52.096Z,102370.06
2023-02-14T13:12:41.903Z,102364.78
2023-02-14T13:15:26.060Z,102363.09
2023-02-14T13:18:05.634Z,102358.63
2023-02-14T13:20:59.305Z,102351.75
2023-02-14T13:23:38.605Z,102352.63
2023-02-14T13:26:17.722Z,102338.34
2023-02-14T13:28:52.530Z,102336.53
2023-02-14T13:31:21.286Z,102329.41
2023-02-14T13:33:57.048Z,102332.88
2023-02-14T13:36:27.638Z,102328.38
2023-02-14T13:38:58.001Z,102318.53
2023-02-14T13:41:28.170Z,102309.63
2023-02-14T13:43:56.815Z,102312.88
2023-02-14T13:46:30.497Z,102307.63
2023-02-14T13:49:05.986Z,102305.03
2023-02-14T13:51:50.450Z,102311.13
2023-02-14T13:54:41.250Z,102307.59
2023-02-14T13:57:28.474Z,102306.75
2023-02-14T14:00:17.840Z,102295.25
2023-02-14T14:02:46.368Z,102298.03
2023-02-14T14:05:42.982Z,102291.22
2023-02-14T14:08:36.765Z,102283.47
2023-02-14T14:11:11.828Z,102273.91
2023-02-14T14:13:42.390Z,102279.25
2023-02-14T14:16:27.436Z,102279.28
2023-02-14T14:19:19.280Z,102268.00
2023-02-14T14:22:05.944Z,102272.50
2023-02-14T14:24:36.580Z,102270.91
2023-02-14T14:27:25.556Z,102265.66
2023-02-14T14:29:58.760Z,102255.28
2023-02-14T14:32:32.909Z,102251.84
2023-02-14T14:35:03.225Z,102249.16
2023-02-14T14:37:33.478Z,102259.66
2023-02-14T14:40:04.079Z,102264.84
2023-02-14T14:42:37.988Z,102259.22
2023-02-14T14:45:18.568Z,102246.09
2023-02-14T14:47:47.593Z,102245.34
2023-02-14T14:50:35.648Z,102243.53
2023-02-14T14:53:06.981Z,102241.09
2023-02-14T14:55:37.861Z,102241.25
2023-02-14T14:58:29.368Z,102237.69
2023-02-14T15:00:56.920Z,102230.78
2023-02-14T15:03:27.142Z,102227.47
2023-02-14T15:06:08.384Z,102225.81
2023-02-14T15:08:36.300Z,102225.88
2023-02-14T15:11:34.939Z,102218.84
2023-02-14T15:14:05.835Z,102212.72
2023-02-14T15:16:36.640Z,102204.81
2023-02-14T15:19:12.982Z,102216.03
2023-02-14T15:21:44.427Z,102217.75
2023-02-14T15:24:16.230Z,102220.38
2023-02-14T15:26:46.869Z,102215.88
2023-02-14T15:29:29.561Z,102215.88
2023-02-14T15:32:02.496Z,102215.09
2023-02-14T15:34:36.157Z,102215.00
2023-02-14T15:37:06.794Z,102213.94
2023-02-14T15:39:40.482Z,102210.44
2023-02-14T15:42:33.064Z,102209.53
2023-02-14T15:45:28.103Z,102202.56
2023-02-14T15:47:57.485Z,102204.28
2023-02-14T15:50:27.981Z,102217.38
2023-02-14T15:53:04.316Z,102202.47
2023-02-14T15:55:33.700Z,102204.25
2023-02-14T15:58:06.987Z,102200.59
2023-02-14T16:00:35.740Z,102204.22
2023-02-14T16:03:09.049Z,102199.91
2023-02-14T16:05:36.787Z,102204.34
2023-02-14T16:08:40.150Z,102203.34
2023-02-14T16:11:35.547Z,102206.78
2023-02-14T16:14:36.339Z,102203.13
2023-02-14T16:17:06.916Z,102199.50
2023-02-14T16:19:35.901Z,102195.91
2023-02-14T16:22:04.571Z,102192.38
2023-02-14T16:24:31.988Z,102191.47
2023-02-14T16:27:06.798Z,102193.38
2023-02-14T16:29:36.284Z,102194.22
2023-02-14T16:32:20.305Z,102193.09
2023-02-14T16:34:48.764Z,102200.84
2023-02-14T16:37:23.712Z,102193.88
2023-02-14T16:39:54.609Z,102194.69
2023-02-14T16:42:22.208Z,102195.50
2023-02-14T16:44:50.954Z,102189.88
2023-02-14T16:47:20.619Z,102186.22
2023-02-14T16:49:48.688Z,102184.56
2023-02-14T16:52:23.895Z,102189.59
2023-02-14T16:54:52.039Z,102189.56
2023-02-14T16:57:35.675Z,102192.00
2023-02-14T17:00:06.553Z,102191.91
2023-02-14T17:02:34.752Z,102193.34
2023-02-14T17:05:02.279Z,102204.53
2023-02-14T17:07:33.154Z,102199.19
2023-02-14T17:10:05.721Z,102197.97
2023-02-14T17:12:38.495Z,102192.88
2023-02-14T17:15:13.073Z,102198.91
2023-02-14T17:17:41.956Z,102196.03
2023-02-14T17:20:09.846Z,102201.13
2023-02-14T17:22:37.857Z,102194.00
2023-02-14T17:25:06.213Z,102194.69
2023-02-14T17:27:33.908Z,102204.19
2023-02-14T17:30:01.532Z,102199.63
2023-02-14T17:32:29.233Z,102202.91
2023-02-14T17:34:57.159Z,102208.00
2023-02-14T17:37:24.729Z,102207.72
2023-02-14T17:39:53.116Z,102215.31
2023-02-14T17:42:20.851Z,102209.78
2023-02-14T17:44:48.565Z,102213.41
2023-02-14T17:47:18.221Z,102217.00
2023-02-14T17:49:47.477Z,102218.50
2023-02-14T17:52:15.878Z,102218.19
2023-02-14T17:54:44.008Z,102216.22
2023-02-14T17:57:12.803Z,102214.56
2023-02-14T17:59:40.317Z,102219.66
2023-02-14T18:02:07.812Z,102209.59
2023-02-14T18:04:37.270Z,102212.84
2023-02-14T18:07:05.944Z,102216.22
2023-02-14T18:09:33.781Z,102214.44
2023-02-14T18:12:01.381Z,102212.66
2023-02-14T18:14:28.854Z,102210.94
2023-02-14T18:16:56.310Z,102212.47
2023-02-14T18:19:23.520Z,102227.09
2023-02-14T18:21:50.717Z,102216.59
2023-02-14T18:24:18.049Z,102221.72
2023-02-14T18:26:46.415Z,102216.41
2023-02-14T18:29:14.084Z,102214.69
2023-02-14T18:31:43.425Z,102219.69
2023-02-14T18:34:11.364Z,102212.59
2023-02-14T18:36:41.641Z,102214.22
2023-02-14T18:39:10.624Z,102209.78
2023-02-14T18:41:38.259Z,102219.13
2023-02-14T18:44:06.506Z,102215.53
2023-02-14T18:46:35.732Z,102221.78
2023-02-14T18:49:06.101Z,102215.50
2023-02-14T18:51:35.967Z,102214.25
2023-02-14T18:54:04.717Z,102207.16
2023-02-14T18:56:35.870Z,102206.19
2023-02-14T18:59:06.248Z,102207.09
2023-02-14T19:01:36.893Z,102216.31
2023-02-14T19:04:06.875Z,102217.97
2023-02-14T19:06:35.598Z,102217.88
2023-02-14T19:09:04.298Z,102198.47
2023-02-14T19:11:32.816Z,102202.72
2023-02-14T19:14:02.404Z,102202.81
2023-02-14T19:16:34.130Z,102194.59
2023-02-14T19:19:02.896Z,102197.09
2023-02-14T19:21:36.890Z,102198.66
2023-02-14T19:24:07.092Z,102203.78
2023-02-14T19:26:40.309Z,102202.25
2023-02-14T19:29:17.066Z,102199.47
2023-02-14T19:31:49.949Z,102206.25
2023-02-14T19:34:31.889Z,102198.97
2023-02-14T19:37:01.370Z,102192.88
2023-02-14T19:39:30.240Z,102213.59
2023-02-14T19:41:58.700Z,102202.91
2023-02-14T19:44:26.156Z,102211.94
2023-02-14T19:47:00.043Z,102209.06
2023-02-14T19:49:29.165Z,102198.94
2023-02-14T19:51:57.289Z,102200.59
2023-02-14T19:54:25.797Z,102204.00
2023-02-14T19:56:54.088Z,102210.06
2023-02-14T19:59:22.885Z,102207.09
2023-02-14T20:01:53.090Z,102212.31
2023-02-14T20:04:25.606Z,102203.34
2023-02-14T20:06:54.000Z,102197.53
2023-02-14T20:09:22.935Z,102197.75
2023-02-14T20:11:57.870Z,102206.09
2023-02-14T20:14:26.887Z,102196.19
2023-02-14T20:16:56.176Z,102204.19
2023-02-14T20:19:27.121Z,102191.50
2023-02-14T20:21:55.033Z,102190.00
2023-02-14T20:24:25.579Z,102181.19
2023-02-14T20:26:53.883Z,102189.66
2023-02-14T20:29:22.964Z,102189.34
2023-02-14T20:31:53.164Z,102187.94
2023-02-14T20:34:21.422Z,102192.06
2023-02-14T20:36:56.080Z,102188.28
2023-02-14T20:39:28.937Z,102195.84
2023-02-14T20:41:56.738Z,102198.97
2023-02-14T20:44:24.287Z,102201.69
2023-02-14T20:46:53.898Z,102190.22
2023-02-14T20:49:22.812Z,102194.66
2023-02-14T20:51:51.445Z,102189.59
2023-02-14T20:54:24.377Z,102182.78
2023-02-14T20:56:52.933Z,102185.22
2023-02-14T20:59:27.077Z,102186.22
2023-02-14T21:01:56.704Z,102178.53
2023-02-14T21:04:25.395Z,102185.09
2023-02-14T21:06:53.115Z,102176.44
2023-02-14T21:09:20.893Z,102179.94
2023-02-14T21:11:49.665Z,102178.59
2023-02-14T21:14:17.535Z,102176.75
2023-02-14T21:16:45.095Z,102175.50
2023-02-14T21:19:12.555Z,102179.19
2023-02-14T21:21:40.282Z,102179.88
2023-02-14T21:24:12.218Z,102184.75
2023-02-14T21:26:40.331Z,102184.41
2023-02-14T21:29:08.705Z,102180.97
2023-02-14T21:31:37.085Z,102179.81
2023-02-14T21:34:04.953Z,102174.66
2023-02-14T21:36:37.246Z,102183.78
2023-02-14T21:39:06.640Z,102185.97
2023-02-14T21:41:35.697Z,102183.31
2023-02-14T21:44:04.695Z,102181.88
2023-02-14T21:46:36.094Z,102185.97
2023-02-14T21:49:24.173Z,102190.94
2023-02-14T21:51:51.748Z,102187.72
2023-02-14T21:54:19.314Z,102193.38
2023-02-14T21:56:46.909Z,102194.00
2023-02-14T21:59:14.505Z,102193.31
2023-02-14T22:01:42.640Z,102194.28
2023-02-14T22:04:12.629Z,102196.22
2023-02-14T22:06:41.926Z,102192.00
2023-02-14T22:09:11.015Z,102202.06
2023-02-14T22:11:38.639Z,102205.28
2023-02-14T22:14:06.109Z,102195.00
2023-02-14T22:16:36.792Z,102191.31
2023-02-14T22:19:08.337Z,102186.44
2023-02-14T22:21:35.807Z,102185.06
2023-02-14T22:24:03.166Z,102186.00
2023-02-14T22:26:40.941Z,102186.78
2023-02-14T22:29:11.760Z,102187.31
2023-02-14T22:31:42.499Z,102183.94
2023-02-14T22:34:12.851Z,102185.13
2023-02-14T22:36:40.641Z,102181.84
2023-02-14T22:39:09.511Z,102188.75
2023-02-14T22:41:37.999Z,102184.94
2023-02-14T22:44:06.208Z,102176.00
2023-02-14T22:46:33.935Z,102169.03
2023-02-14T22:49:01.488Z,102173.22
2023-02-14T22:51:39.350Z,102171.94
2023-02-14T22:54:15.399Z,102171.00
2023-02-14T22:56:45.680Z,102171.63
2023-02-14T22:59:24.412Z,102164.78
2023-02-14T23:01:53.453Z,102166.38
2023-02-14T23:04:22.483Z,102158.44
2023-02-14T23:06:52.075Z,102155.97
2023-02-14T23:09:20.086Z,102156.56
2023-02-14T23:11:48.827Z,102159.03
2023-02-14T23:14:36.288Z,102167.72
2023-02-14T23:17:23.796Z,102164.22
2023-02-14T23:20:10.328Z,102177.81
2023-02-14T23:22:39.582Z,102168.88
2023-02-14T23:25:12.336Z,102169.72
2023-02-14T23:27:44.249Z,102166.88
2023-02-14T23:30:15.770Z,102163.53
2023-02-14T23:32:44.023Z,102165.78
2023-02-14T23:35:11.671Z,102171.72
2023-02-14T23:37:39.347Z,102169.25
2023-02-14T23:40:07.565Z,102176.41
2023-02-14T23:42:35.147Z,102173.25
2023-02-14T23:45:21.233Z,102173.16
2023-02-14T23:47:48.815Z,102172.63
2023-02-14T23:50:16.271Z,102176.66
2023-02-14T23:52:44.714Z,102173.19
2023-02-14T23:55:12.854Z,102174.31
2023-02-14T23:57:40.372Z,102172.28
